createdAt,value
2022-10-30T00:01:15.115Z,99.90
2022-10-30T00:03:42.281Z,99.90
2022-10-30T00:06:09.489Z,99.90
2022-10-30T00:08:37.060Z,99.90
2022-10-30T00:11:13.626Z,99.90
2022-10-30T00:13:44.145Z,99.90
2022-10-30T00:16:11.601Z,99.90
2022-10-30T00:18:40.093Z,99.90
2022-10-30T00:21:11.724Z,99.90
2022-10-30T00:23:39.745Z,99.90
2022-10-30T00:26:08.077Z,99.90
2022-10-30T00:28:35.575Z,99.90
2022-10-30T00:31:05.384Z,99.90
2022-10-30T00:33:32.952Z,99.90
2022-10-30T00:36:00.924Z,99.90
2022-10-30T00:38:28.221Z,99.90
2022-10-30T00:40:55.420Z,99.90
2022-10-30T00:43:30.643Z,99.90
2022-10-30T00:46:06.383Z,99.90
2022-10-30T00:48:34.865Z,99.90
2022-10-30T00:51:06.849Z,99.90
2022-10-30T00:53:34.397Z,99.90
2022-10-30T00:56:06.767Z,99.90
2022-10-30T00:58:44.950Z,99.90
2022-10-30T01:01:20.133Z,99.90
2022-10-30T01:03:50.497Z,99.90
2022-10-30T01:06:18.674Z,99.90
2022-10-30T01:08:48.021Z,99.90
2022-10-30T01:11:15.403Z,99.90
2022-10-30T01:13:47.054Z,99.90
2022-10-30T01:16:40.366Z,99.90
2022-10-30T01:19:33.655Z,99.90
2022-10-30T01:22:18.792Z,99.90
2022-10-30T01:25:13.176Z,99.90
2022-10-30T01:28:01.414Z,99.90
2022-10-30T01:31:10.743Z,99.90
2022-10-30T01:34:28.105Z,99.90
2022-10-30T01:37:14.464Z,99.90
2022-10-30T01:39:42.092Z,99.90
2022-10-30T01:42:52.052Z,99.90
2022-10-30T01:45:43.788Z,99.90
2022-10-30T01:48:22.810Z,99.90
2022-10-30T01:51:21.876Z,99.90
2022-10-30T01:54:12.464Z,99.90
2022-10-30T01:56:55.225Z,99.90
2022-10-30T01:59:51.140Z,99.90
2022-10-30T02:02:18.956Z,99.90
2022-10-30T02:04:46.475Z,99.90
2022-10-30T02:07:13.862Z,99.90
2022-10-30T02:09:42.104Z,99.90
2022-10-30T02:12:10.487Z,99.90
2022-10-30T02:14:45.187Z,99.90
2022-10-30T02:17:13.379Z,99.90
2022-10-30T02:19:40.532Z,99.90
2022-10-30T02:22:07.961Z,99.90
2022-10-30T02:24:35.139Z,99.90
2022-10-30T02:27:02.391Z,99.90
2022-10-30T02:29:29.893Z,99.90
2022-10-30T02:31:57.091Z,99.90
2022-10-30T02:34:24.256Z,99.90
2022-10-30T02:36:51.499Z,99.90
2022-10-30T02:39:18.752Z,99.90
2022-10-30T02:41:46.037Z,99.90
2022-10-30T02:44:13.412Z,99.90
2022-10-30T02:46:40.727Z,99.90
2022-10-30T02:49:08.040Z,99.90
2022-10-30T02:51:35.210Z,99.90
2022-10-30T02:54:02.363Z,99.90
2022-10-30T02:56:29.754Z,99.90
2022-10-30T02:58:57.378Z,99.90
2022-10-30T03:01:27.872Z,99.90
2022-10-30T03:03:55.388Z,99.90
2022-10-30T03:06:22.748Z,99.90
2022-10-30T03:08:50.040Z,99.90
2022-10-30T03:11:19.799Z,99.90
2022-10-30T03:13:49.199Z,99.90
2022-10-30T03:16:21.435Z,99.90
2022-10-30T03:18:49.081Z,99.90
2022-10-30T03:33:41.827Z,99.90
2022-10-30T03:36:12.456Z,99.90
2022-10-30T03:38:40.482Z,99.90
2022-10-30T03:41:07.799Z,99.90
2022-10-30T03:43:35.271Z,99.90
2022-10-30T09:13:07.521Z,99.90
2022-10-30T09:15:34.748Z,99.90
2022-10-30T09:18:04.550Z,99.90
2022-10-30T09:20:32.284Z,99.90
2022-10-30T09:22:59.669Z,99.90
2022-10-30T09:25:27.287Z,99.90
2022-10-30T09:27:54.526Z,99.90
2022-10-30T09:30:22.422Z,99.90
2022-10-30T09:33:01.488Z,99.90
2022-10-30T09:35:29.768Z,99.90
2022-10-30T09:37:57.943Z,99.90
2022-10-30T09:41:24.432Z,99.90
2022-10-30T09:44:21.511Z,99.90
2022-10-30T09:47:23.323Z,99.90
2022-10-30T09:50:11.926Z,99.90
2022-10-30T09:53:01.392Z,99.90
2022-10-30T09:56:23.735Z,99.90
2022-10-30T09:59:16.633Z,99.90
2022-10-30T10:02:11.070Z,99.90
2022-10-30T10:04:51.862Z,99.90
2022-10-30T10:07:35.642Z,99.90
2022-10-30T10:10:36.783Z,99.90
2022-10-30T10:15:57.399Z,99.90
2022-10-30T10:21:33.202Z,99.90
2022-10-30T10:24:04.346Z,99.90
2022-10-30T10:26:45.472Z,99.90
2022-10-30T10:29:41.490Z,99.90
2022-10-30T10:36:06.122Z,99.90
2022-10-30T10:39:00.185Z,99.90
2022-10-30T10:42:03.794Z,99.90
2022-10-30T10:45:17.314Z,99.90
2022-10-30T10:47:53.202Z,99.90
2022-10-30T10:53:29.369Z,99.90
2022-10-30T10:56:00.934Z,99.90
2022-10-30T10:59:00.854Z,99.90
2022-10-30T11:01:48.835Z,99.90
2022-10-30T11:04:45.492Z,99.90
2022-10-30T11:07:24.145Z,99.90
2022-10-30T11:09:58.371Z,99.90
2022-10-30T11:12:37.069Z,99.90
2022-10-30T11:15:24.136Z,99.90
2022-10-30T11:18:10.312Z,99.90
2022-10-30T11:21:18.207Z,99.90
2022-10-30T11:23:48.380Z,99.90
2022-10-30T11:26:18.528Z,99.90
2022-10-30T11:28:56.286Z,99.90
2022-10-30T11:31:29.564Z,99.90
2022-10-30T11:33:57.072Z,99.90
2022-10-30T11:36:26.417Z,99.90
2022-10-30T11:39:09.082Z,99.90
2022-10-30T11:41:36.632Z,99.90
2022-10-30T11:44:06.540Z,99.90
2022-10-30T11:46:36.486Z,99.90
2022-10-30T11:49:03.849Z,99.90
2022-10-30T11:51:39.488Z,99.90
2022-10-30T11:54:16.007Z,99.90
2022-10-30T11:56:49.866Z,99.90
2022-10-30T11:59:23.828Z,99.90
2022-10-30T12:02:19.337Z,99.90
2022-10-30T12:04:46.813Z,99.40
2022-10-30T12:07:23.107Z,99.20
2022-10-30T12:09:50.908Z,99.70
2022-10-30T12:12:38.886Z,98.70
2022-10-30T12:15:15.257Z,98.10
2022-10-30T12:18:00.329Z,97.70
2022-10-30T12:20:29.269Z,96.80
2022-10-30T12:22:57.959Z,97.10
2022-10-30T12:25:31.012Z,97.30
2022-10-30T12:28:08.197Z,97.40
2022-10-30T12:30:49.770Z,97.10
2022-10-30T12:33:28.883Z,97.10
2022-10-30T12:36:18.185Z,97.40
2022-10-30T12:38:57.510Z,97.90
2022-10-30T12:41:59.570Z,97.60
2022-10-30T12:44:51.864Z,96.60
2022-10-30T12:47:29.042Z,96.60
2022-10-30T12:50:06.902Z,96.50
2022-10-30T12:52:46.630Z,96.80
2022-10-30T12:55:37.022Z,98.30
2022-10-30T12:58:39.998Z,98.70
2022-10-30T13:04:15.719Z,99.90
2022-10-30T13:07:03.290Z,99.90
2022-10-30T13:10:20.257Z,99.90
2022-10-30T13:12:52.723Z,99.90
2022-10-30T13:15:31.014Z,99.90
2022-10-30T13:18:16.378Z,99.90
2022-10-30T13:20:57.529Z,99.90
2022-10-30T13:23:35.681Z,99.90
2022-10-30T13:26:31.651Z,99.90
2022-10-30T13:29:23.390Z,99.90
2022-10-30T13:32:34.158Z,99.90
2022-10-30T13:35:44.306Z,99.90
2022-10-30T13:38:45.171Z,99.90
2022-10-30T13:41:31.670Z,99.90
2022-10-30T13:44:34.968Z,99.90
2022-10-30T13:47:32.588Z,99.90
2022-10-30T13:50:51.471Z,99.90
2022-10-30T13:53:28.097Z,99.90
2022-10-30T13:55:57.382Z,99.90
2022-10-30T13:58:44.182Z,99.90
2022-10-30T14:01:46.028Z,99.90
2022-10-30T14:04:32.877Z,99.90
2022-10-30T14:07:38.376Z,99.90
2022-10-30T14:10:20.817Z,99.90
2022-10-30T14:12:57.310Z,99.90
2022-10-30T14:18:13.717Z,99.90
2022-10-30T14:20:52.651Z,99.90
2022-10-30T14:23:33.121Z,99.90
2022-10-30T14:26:03.570Z,99.90
2022-10-30T14:28:41.796Z,99.90
2022-10-30T14:31:18.609Z,99.90
2022-10-30T14:33:51.597Z,99.90
2022-10-30T14:36:23.169Z,99.90
2022-10-30T14:39:09.886Z,99.90
2022-10-30T14:42:19.740Z,99.90
2022-10-30T14:45:22.388Z,99.90
2022-10-30T14:48:34.882Z,99.90
2022-10-30T14:51:33.640Z,99.90
2022-10-30T14:54:06.290Z,99.90
2022-10-30T14:56:48.550Z,99.90
2022-10-30T14:59:15.594Z,99.90
2022-10-30T15:01:51.555Z,99.90
2022-10-30T15:07:31.778Z,99.90
2022-10-30T15:10:16.319Z,99.90
2022-10-30T15:13:21.434Z,99.90
2022-10-30T15:16:07.915Z,99.90
2022-10-30T15:18:35.280Z,99.90
2022-10-30T15:21:07.192Z,99.90
2022-10-30T15:23:37.552Z,99.90
2022-10-30T15:26:20.058Z,99.90
2022-10-30T15:31:24.074Z,99.90
2022-10-30T15:33:52.879Z,99.90
2022-10-30T15:36:40.424Z,99.90
2022-10-30T15:39:18.835Z,99.90
2022-10-30T15:42:01.945Z,99.90
2022-10-30T15:44:41.457Z,99.90
2022-10-30T15:47:19.875Z,99.90
2022-10-30T15:52:28.659Z,99.90
2022-10-30T15:55:07.826Z,99.90
2022-10-30T15:58:02.874Z,99.90
2022-10-30T16:00:36.104Z,99.90
2022-10-30T16:03:18.131Z,99.90
2022-10-30T16:05:46.029Z,99.90
2022-10-30T16:08:21.008Z,99.90
2022-10-30T16:10:52.611Z,99.90
2022-10-30T16:13:29.457Z,99.90
2022-10-30T16:15:57.278Z,99.90
2022-10-30T16:18:36.426Z,99.90
2022-10-30T16:21:09.488Z,99.90
2022-10-30T16:23:47.394Z,99.90
2022-10-30T16:26:24.588Z,99.90
2022-10-30T16:28:52.085Z,99.90
2022-10-30T16:31:20.494Z,99.90
2022-10-30T16:36:18.480Z,99.90
2022-10-30T16:38:49.657Z,99.90
2022-10-30T16:41:24.167Z,99.90
2022-10-30T16:44:17.319Z,99.90
2022-10-30T16:46:57.315Z,99.90
2022-10-30T16:49:30.585Z,99.90
2022-10-30T16:52:04.217Z,99.90
2022-10-30T16:54:49.020Z,99.90
2022-10-30T16:57:30.209Z,99.90
2022-10-30T17:00:00.859Z,99.90
2022-10-30T17:02:33.857Z,99.90
2022-10-30T17:05:19.576Z,99.90
2022-10-30T17:08:03.863Z,99.90
2022-10-30T17:10:55.043Z,99.90
2022-10-30T17:13:39.366Z,99.90
2022-10-30T17:16:26.554Z,99.90
2022-10-30T17:21:41.108Z,99.90
2022-10-30T17:24:41.944Z,99.90
2022-10-30T17:27:50.526Z,99.90
2022-10-30T17:30:34.057Z,99.90
2022-10-30T17:33:37.560Z,99.90
2022-10-30T17:36:06.674Z,99.90
2022-10-30T17:38:34.083Z,99.90
2022-10-30T17:41:02.476Z,99.90
2022-10-30T17:43:52.039Z,99.90
2022-10-30T17:46:20.574Z,99.90
2022-10-30T17:48:48.642Z,99.90
2022-10-30T17:51:18.225Z,99.90
2022-10-30T17:53:50.156Z,99.90
2022-10-30T17:56:31.421Z,99.90
2022-10-30T17:58:58.654Z,99.90
2022-10-30T18:01:27.564Z,99.90
2022-10-30T18:03:56.239Z,99.90
2022-10-30T18:06:27.324Z,99.90
2022-10-30T18:08:55.281Z,99.90
2022-10-30T18:11:24.871Z,99.90
2022-10-30T18:16:23.339Z,99.90
2022-10-30T18:18:51.529Z,99.90
2022-10-30T18:21:22.710Z,99.90
2022-10-30T18:23:53.115Z,99.90
2022-10-30T18:26:26.991Z,99.90
2022-10-30T18:28:54.974Z,99.90
2022-10-30T18:31:25.823Z,99.90
2022-10-30T18:33:53.234Z,99.90
2022-10-30T18:36:24.623Z,99.90
2022-10-30T18:38:52.787Z,99.90
2022-10-30T18:41:36.738Z,99.90
2022-10-30T18:44:04.721Z,99.90
2022-10-30T18:46:33.896Z,99.90
2022-10-30T18:49:01.493Z,99.90
2022-10-30T18:51:29.542Z,99.90
2022-10-30T18:53:57.287Z,99.90
2022-10-30T18:56:28.001Z,99.90
2022-10-30T18:59:00.753Z,99.90
2022-10-30T19:01:31.708Z,99.90
2022-10-30T19:03:59.286Z,99.90
2022-10-30T19:06:26.917Z,99.90
2022-10-30T19:08:54.315Z,99.90
2022-10-30T19:11:24.881Z,99.90
2022-10-30T19:13:54.525Z,99.90
2022-10-30T19:16:22.720Z,99.90
2022-10-30T19:18:49.923Z,99.90
2022-10-30T19:23:50.503Z,99.90
2022-10-30T19:26:18.033Z,99.90
2022-10-30T19:28:46.720Z,99.90
2022-10-30T19:31:18.203Z,99.90
2022-10-30T19:33:52.958Z,99.90
2022-10-30T19:36:34.951Z,99.90
2022-10-30T19:39:14.173Z,99.90
2022-10-30T19:41:41.641Z,99.90
2022-10-30T19:44:09.365Z,99.90
2022-10-30T19:46:37.539Z,99.90
2022-10-30T19:49:17.979Z,99.90
2022-10-30T19:51:45.247Z,99.90
2022-10-30T19:54:12.584Z,99.90
2022-10-30T19:56:39.733Z,99.90
2022-10-30T19:59:13.403Z,99.90
2022-10-30T20:01:40.769Z,99.90
2022-10-30T20:04:08.011Z,99.90
2022-10-30T20:06:35.175Z,99.90
2022-10-30T20:09:02.310Z,99.90
2022-10-30T20:11:29.713Z,99.90
2022-10-30T20:13:56.841Z,99.90
2022-10-30T20:16:24.266Z,99.90
2022-10-30T20:18:51.490Z,99.90
2022-10-30T20:21:20.276Z,99.90
2022-10-30T20:23:47.544Z,99.90
2022-10-30T20:26:25.234Z,99.90
2022-10-30T20:28:53.502Z,99.90
2022-10-30T20:31:21.594Z,99.90
2022-10-30T20:33:48.846Z,99.90
2022-10-30T20:36:16.043Z,99.90
2022-10-30T20:38:43.402Z,99.90
2022-10-30T20:41:25.541Z,99.90
2022-10-30T20:43:52.811Z,99.90
2022-10-30T20:46:21.550Z,99.90
2022-10-30T20:48:49.179Z,99.90
2022-10-30T20:51:16.586Z,99.90
2022-10-30T20:53:43.825Z,99.90
2022-10-30T20:56:11.082Z,99.90
2022-10-30T20:58:38.508Z,99.90
2022-10-30T21:01:06.156Z,99.90
2022-10-30T21:03:33.484Z,99.90
2022-10-30T21:06:02.395Z,99.90
2022-10-30T21:08:31.561Z,99.90
2022-10-30T21:11:02.373Z,99.90
2022-10-30T21:13:29.946Z,99.90
2022-10-30T21:16:02.652Z,99.90
2022-10-30T21:18:30.358Z,99.90
2022-10-30T21:21:08.930Z,99.90
2022-10-30T21:23:36.151Z,99.90
2022-10-30T21:26:08.009Z,99.90
2022-10-30T21:28:35.210Z,99.90
2022-10-30T21:31:10.979Z,99.90
2022-10-30T21:33:38.912Z,99.90
2022-10-30T21:36:15.357Z,99.90
2022-10-30T21:38:44.256Z,99.90
2022-10-30T21:41:17.123Z,99.90
2022-10-30T21:43:50.179Z,99.90
2022-10-30T21:46:17.966Z,99.90
2022-10-30T21:48:45.093Z,99.90
2022-10-30T21:51:25.102Z,99.90
2022-10-30T21:53:54.118Z,99.90
2022-10-30T21:56:25.913Z,99.90
2022-10-30T21:58:55.518Z,99.90
2022-10-30T22:01:29.211Z,99.90
2022-10-30T22:04:00.368Z,99.90
2022-10-30T22:06:29.092Z,99.90
2022-10-30T22:08:57.651Z,99.90
2022-10-30T22:11:28.545Z,99.90
2022-10-30T22:13:59.188Z,99.90
2022-10-30T22:16:28.329Z,99.90
2022-10-30T22:18:57.016Z,99.90
2022-10-30T22:21:25.151Z,99.90
2022-10-30T22:23:52.353Z,99.90
2022-10-30T22:26:22.541Z,99.90
2022-10-30T22:28:54.619Z,99.90
2022-10-30T22:31:24.890Z,99.90
2022-10-30T22:33:53.076Z,99.90
2022-10-30T22:36:25.425Z,99.90
2022-10-30T22:39:00.379Z,99.90
2022-10-30T22:41:34.405Z,99.90
2022-10-30T22:44:06.555Z,99.90
2022-10-30T22:46:33.960Z,99.90
2022-10-30T22:49:01.123Z,99.90
2022-10-30T22:51:31.289Z,99.90
2022-10-30T22:54:04.573Z,99.90
2022-10-30T22:56:34.917Z,99.90
2022-10-30T22:59:05.943Z,99.90
2022-10-30T23:01:36.154Z,99.90
2022-10-30T23:04:05.559Z,99.90
2022-10-30T23:06:35.231Z,99.90
2022-10-30T23:09:08.015Z,99.90
2022-10-30T23:11:35.778Z,99.90
2022-10-30T23:14:03.467Z,99.90
2022-10-30T23:16:30.943Z,99.90
2022-10-30T23:19:00.637Z,99.90
2022-10-30T23:21:30.987Z,99.90
2022-10-30T23:23:59.261Z,99.90
2022-10-30T23:26:33.319Z,99.90
2022-10-30T23:29:01.899Z,99.90
2022-10-30T23:31:39.429Z,99.90
2022-10-30T23:34:10.916Z,99.90
2022-10-30T23:36:38.758Z,99.90
2022-10-30T23:39:16.600Z,99.90
2022-10-30T23:41:44.708Z,99.90
2022-10-30T23:44:15.520Z,99.90
2022-10-30T23:46:42.767Z,99.90
2022-10-30T23:49:09.896Z,99.90
2022-10-30T23:51:37.215Z,99.90
2022-10-30T23:54:05.453Z,99.90
2022-10-30T23:56:32.652Z,99.90
2022-10-30T23:59:00.798Z,99.90
